Time;durP1;ratioP1;P1;durP2;ratioP2;P2;SDS_P1;SDS_P2;PMS_P1;PMS_P2;Temp;Humidity;BMP_temperature;BMP_pressure;BME280_temperature;BME280_humidity;BME280_pressure;Samples;Min_cycle;Max_cycle;Signal;HPM_P1;HPM_P2
2022/08/05 00:01:13;;;;;;;6.93;6.23;;;26.20;99.90;;;;;;5073595;28;20468;-74
2022/08/05 00:03:39;;;;;;;7.10;6.60;;;26.10;99.90;;;;;;5072655;28;20942;-74
2022/08/05 00:06:06;;;;;;;7.50;6.80;;;26.10;99.90;;;;;;5072779;28;20481;-74
2022/08/05 00:08:34;;;;;;;10.43;6.70;;;26.10;99.90;;;;;;5072924;28;20459;-74
2022/08/05 00:13:34;;;;;;;10.03;6.60;;;26.10;99.90;;;;;;5051864;28;20470;-75
2022/08/05 00:16:01;;;;;;;6.73;6.13;;;26.00;99.90;;;;;;5052985;28;20790;-74
2022/08/05 00:18:28;;;;;;;7.80;7.20;;;25.90;99.90;;;;;;5052936;28;20450;-74
2022/08/05 00:20:55;;;;;;;6.80;6.30;;;25.90;99.90;;;;;;5052978;28;20820;-74
2022/08/05 00:23:22;;;;;;;6.70;6.10;;;25.90;99.90;;;;;;5033032;28;20492;-74
2022/08/05 00:25:50;;;;;;;6.53;6.03;;;25.80;99.90;;;;;;5032668;28;20490;-74
2022/08/05 00:28:17;;;;;;;7.30;6.73;;;25.70;99.90;;;;;;5032806;28;20453;-75
2022/08/05 00:30:46;;;;;;;7.13;6.50;;;25.70;99.90;;;;;;5034213;28;20451;-75
2022/08/05 00:33:12;;;;;;;7.30;6.70;;;25.60;99.90;;;;;;5032552;28;20478;-74
2022/08/05 00:35:39;;;;;;;7.83;7.07;;;25.60;99.90;;;;;;5032480;28;20957;-75
2022/08/05 00:38:06;;;;;;;8.10;7.40;;;25.50;99.90;;;;;;5032748;28;20454;-76
2022/08/05 00:40:33;;;;;;;8.13;7.07;;;25.50;99.90;;;;;;5032307;28;20953;-75
2022/08/05 00:43:02;;;;;;;7.90;7.07;;;25.50;99.90;;;;;;5032747;28;20525;-74
2022/08/05 00:45:29;;;;;;;7.73;7.10;;;25.40;99.90;;;;;;5032887;28;20490;-74
2022/08/05 00:47:57;;;;;;;7.90;7.20;;;25.40;99.90;;;;;;5032999;28;20983;-74
2022/08/05 00:50:24;;;;;;;7.17;6.53;;;25.30;99.90;;;;;;5034533;28;20447;-74
2022/08/05 00:52:50;;;;;;;6.80;6.20;;;25.30;99.90;;;;;;5036262;28;20473;-74
2022/08/05 00:55:17;;;;;;;6.87;6.37;;;25.30;99.90;;;;;;5037003;28;20442;-74
2022/08/05 00:57:44;;;;;;;6.60;6.13;;;25.30;99.90;;;;;;5034416;28;20477;-75
2022/08/05 01:00:12;;;;;;;7.17;6.67;;;25.30;99.90;;;;;;5032794;28;20516;-74
2022/08/05 01:02:38;;;;;;;7.33;6.70;;;25.20;99.90;;;;;;5036033;28;20470;-74
2022/08/05 01:05:07;;;;;;;7.47;6.90;;;25.20;99.90;;;;;;5035958;28;20486;-74
2022/08/05 01:07:34;;;;;;;8.30;7.57;;;25.30;1.00;;;;;;5035825;28;21020;-74
2022/08/05 01:10:02;;;;;;;8.40;7.00;;;25.50;99.90;;;;;;5037221;28;20825;-75
2022/08/05 01:12:29;;;;;;;7.30;6.70;;;25.40;99.90;;;;;;5037142;28;20489;-74
2022/08/05 01:15:00;;;;;;;8.30;7.60;;;25.30;99.90;;;;;;5036292;28;20442;-74
2022/08/05 01:17:32;;;;;;;9.10;7.20;;;25.30;99.90;;;;;;5035893;28;20435;-74
2022/08/05 01:20:10;;;;;;;7.70;7.00;;;25.20;1.00;;;;;;5035735;28;20435;-74
2022/08/05 01:23:01;;;;;;;8.77;8.03;;;25.20;1.00;;;;;;5035301;28;20462;-74
2022/08/05 01:25:44;;;;;;;8.13;7.43;;;25.10;1.00;;;;;;5035656;28;20470;-75
2022/08/05 01:28:24;;;;;;;7.47;6.90;;;25.10;1.00;;;;;;5035690;28;20500;-75
2022/08/05 01:30:54;;;;;;;8.23;7.43;;;25.20;1.00;;;;;;5035495;28;20441;-74
2022/08/05 01:33:28;;;;;;;7.67;7.07;;;25.30;99.90;;;;;;5035611;28;21012;-74
2022/08/05 01:35:56;;;;;;;8.40;7.57;;;25.20;1.00;;;;;;5035167;28;20522;-75
2022/08/05 01:38:25;;;;;;;8.23;7.20;;;25.00;1.00;;;;;;5035407;28;20442;-75
2022/08/05 01:40:53;;;;;;;8.63;8.03;;;24.90;1.00;;;;;;5035661;28;20451;-74
2022/08/05 01:43:23;;;;;;;8.97;8.10;;;24.90;1.00;;;;;;5035362;28;20482;-75
2022/08/05 01:45:51;;;;;;;9.13;8.43;;;24.80;1.00;;;;;;5035318;28;20484;-74
2022/08/05 01:48:18;;;;;;;7.90;7.20;;;24.70;1.00;;;;;;5034887;28;20447;-74
2022/08/05 01:50:46;;;;;;;8.90;8.20;;;24.70;1.00;;;;;;5035081;28;20447;-75
2022/08/05 01:53:15;;;;;;;8.90;8.20;;;24.50;1.00;;;;;;5034665;28;20470;-74
2022/08/05 01:55:44;;;;;;;7.93;7.43;;;24.60;1.00;;;;;;5035306;28;20508;-74
2022/08/05 01:58:13;;;;;;;8.70;8.00;;;24.60;1.00;;;;;;5035226;28;20473;-75
2022/08/05 02:00:45;;;;;;;9.23;7.27;;;24.60;1.00;;;;;;5035086;28;20473;-74
2022/08/05 02:03:16;;;;;;;9.13;8.23;;;24.70;1.00;;;;;;5034824;28;20485;-75
2022/08/05 02:05:44;;;;;;;10.13;9.07;;;24.70;1.00;;;;;;5035130;28;20471;-75
2022/08/05 02:08:11;;;;;;;9.00;8.30;;;24.70;1.00;;;;;;5034739;28;20572;-75
2022/08/05 02:10:43;;;;;;;9.73;8.93;;;24.70;1.00;;;;;;5034755;28;20549;-75
2022/08/05 02:13:14;;;;;;;10.10;8.50;;;24.70;1.00;;;;;;5034070;28;20501;-74
2022/08/05 02:15:45;;;;;;;9.63;8.73;;;24.70;1.00;;;;;;5034787;28;20431;-74
2022/08/05 02:18:18;;;;;;;9.70;8.70;;;24.60;1.00;;;;;;5034690;28;20434;-74
2022/08/05 02:20:56;;;;;;;9.07;8.27;;;24.50;1.00;;;;;;5034335;28;20435;-74
2022/08/05 02:23:28;;;;;;;8.20;7.50;;;24.50;1.00;;;;;;5034303;28;20909;-75
2022/08/05 02:25:59;;;;;;;9.57;8.70;;;24.60;1.00;;;;;;5034185;28;20467;-74
2022/08/05 02:28:30;;;;;;;8.70;7.90;;;24.60;1.00;;;;;;5034503;28;20787;-74
2022/08/05 02:31:01;;;;;;;8.50;7.73;;;24.40;1.00;;;;;;5034606;28;20786;-74
2022/08/05 02:33:29;;;;;;;8.70;8.10;;;24.50;1.00;;;;;;5034535;28;20771;-73
2022/08/05 02:35:58;;;;;;;7.30;6.80;;;24.60;1.00;;;;;;5034608;28;20592;-74
2022/08/05 02:38:28;;;;;;;9.53;7.90;;;24.60;1.00;;;;;;5034604;28;20446;-73
2022/08/05 02:40:55;;;;;;;8.67;7.40;;;24.40;1.00;;;;;;5034395;28;20473;-74
2022/08/05 02:43:23;;;;;;;8.30;7.27;;;24.30;1.00;;;;;;5034154;28;20457;-74
2022/08/05 02:45:51;;;;;;;7.93;7.30;;;24.30;1.00;;;;;;5034419;28;20486;-74
2022/08/05 02:48:21;;;;;;;7.77;7.17;;;24.20;1.00;;;;;;5034027;28;20457;-75
2022/08/05 02:50:50;;;;;;;9.00;8.30;;;24.10;1.00;;;;;;5034222;28;20438;-75
2022/08/05 02:53:19;;;;;;;7.80;7.10;;;24.10;1.00;;;;;;5033978;28;20466;-75
2022/08/05 02:55:47;;;;;;;9.50;7.30;;;24.00;1.00;;;;;;5035347;28;20861;-74
2022/08/05 02:58:15;;;;;;;8.57;7.87;;;23.90;1.00;;;;;;5036185;28;20450;-74
2022/08/05 03:00:44;;;;;;;7.57;6.97;;;24.00;1.00;;;;;;5036239;28;20451;-74
2022/08/05 03:03:14;;;;;;;10.03;7.00;;;24.10;1.00;;;;;;5034841;28;20469;-75
2022/08/05 03:05:43;;;;;;;7.87;7.00;;;24.00;1.00;;;;;;5034069;28;20525;-76
2022/08/05 03:08:11;;;;;;;7.73;7.13;;;24.10;1.00;;;;;;5033979;28;20458;-75
2022/08/05 03:10:38;;;;;;;8.40;7.80;;;24.10;1.00;;;;;;5033854;28;20450;-76
2022/08/05 03:13:12;;;;;;;9.50;6.67;;;24.00;1.00;;;;;;5033585;28;20474;-75
2022/08/05 03:15:41;;;;;;;9.17;8.30;;;23.80;1.00;;;;;;5033694;28;20431;-74
2022/08/05 03:18:07;;;;;;;10.13;7.70;;;23.80;1.00;;;;;;5033546;28;20443;-74
2022/08/05 03:20:34;;;;;;;7.63;7.03;;;23.70;1.00;;;;;;5033595;28;20473;-74
2022/08/05 03:23:04;;;;;;;10.27;6.90;;;23.70;1.00;;;;;;5032720;28;20470;-74
2022/08/05 03:25:31;;;;;;;7.53;6.93;;;23.60;17.50;;;;;;5033296;28;20826;-74
2022/08/05 03:27:58;;;;;;;8.70;7.00;;;23.70;37.10;;;;;;5033530;28;20451;-74
2022/08/05 03:30:27;;;;;;;8.80;7.33;;;23.80;9.60;;;;;;5033324;28;20455;-74
2022/08/05 03:32:54;;;;;;;7.90;7.20;;;23.80;1.00;;;;;;5033384;28;20467;-74
2022/08/05 03:35:22;;;;;;;6.70;6.30;;;23.80;11.00;;;;;;5034521;28;20457;-74
2022/08/05 03:37:48;;;;;;;7.57;6.87;;;23.80;15.80;;;;;;5042469;28;20450;-73
2022/08/05 03:40:16;;;;;;;10.10;7.20;;;23.70;24.50;;;;;;5039268;28;20852;-74
2022/08/05 03:42:43;;;;;;;8.67;7.90;;;23.70;42.80;;;;;;5039098;28;20463;-74
2022/08/05 03:45:10;;;;;;;8.53;7.17;;;23.70;84.10;;;;;;5034555;28;20562;-74
2022/08/05 03:47:37;;;;;;;7.43;6.77;;;23.60;74.60;;;;;;5033172;28;20486;-74
2022/08/05 03:50:04;;;;;;;9.50;7.43;;;23.60;99.90;;;;;;5033042;28;20500;-74
2022/08/05 03:52:33;;;;;;;16.40;7.57;;;23.70;96.30;;;;;;5033837;28;20475;-74
2022/08/05 03:55:03;;;;;;;9.60;6.80;;;23.60;99.90;;;;;;5033185;28;20450;-74
2022/08/05 03:57:33;;;;;;;8.67;7.10;;;23.60;99.90;;;;;;5034254;28;20442;-74
2022/08/05 04:00:04;;;;;;;6.63;6.00;;;23.50;99.90;;;;;;5032964;28;20504;-74
2022/08/05 04:02:34;;;;;;;7.77;5.90;;;23.50;99.90;;;;;;5032910;28;20473;-74
2022/08/05 04:05:02;;;;;;;7.17;6.67;;;23.50;99.90;;;;;;5033009;28;20473;-74
2022/08/05 04:07:29;;;;;;;7.07;6.50;;;23.60;99.90;;;;;;5032704;28;20481;-75
2022/08/05 04:09:56;;;;;;;15.53;11.97;;;23.50;99.90;;;;;;5033032;28;20446;-74
2022/08/05 04:12:23;;;;;;;7.57;6.97;;;23.60;99.90;;;;;;5032670;28;20478;-74
2022/08/05 04:14:52;;;;;;;7.90;7.23;;;23.70;99.90;;;;;;5032556;28;20443;-74
2022/08/05 04:17:19;;;;;;;8.93;8.20;;;23.70;99.90;;;;;;5033365;28;20849;-74
2022/08/05 04:19:47;;;;;;;7.30;6.70;;;23.60;99.90;;;;;;5032839;28;20461;-74
2022/08/05 04:22:14;;;;;;;9.87;6.97;;;23.70;99.90;;;;;;5032615;28;20470;-74
2022/08/05 04:24:42;;;;;;;7.97;6.53;;;23.70;99.90;;;;;;5032904;28;20473;-74
2022/08/05 04:27:09;;;;;;;7.43;6.73;;;23.70;99.90;;;;;;5032452;28;20478;-74
2022/08/05 04:29:36;;;;;;;9.53;7.00;;;23.80;99.90;;;;;;5032836;28;20462;-74
2022/08/05 04:32:05;;;;;;;6.97;6.30;;;23.80;99.90;;;;;;5033695;28;20466;-75
2022/08/05 04:34:31;;;;;;;9.10;8.30;;;23.80;99.90;;;;;;5034171;28;20446;-75
2022/08/05 04:36:58;;;;;;;7.43;6.70;;;23.80;99.90;;;;;;5036310;28;20930;-75
2022/08/05 04:39:25;;;;;;;10.00;7.37;;;23.90;99.90;;;;;;5036563;28;20450;-75
2022/08/05 04:41:51;;;;;;;10.50;7.53;;;23.90;99.90;;;;;;5037047;28;20836;-74
2022/08/05 04:44:19;;;;;;;8.77;8.00;;;24.00;99.90;;;;;;5036851;28;20814;-74
2022/08/05 04:46:45;;;;;;;12.80;10.63;;;24.10;99.90;;;;;;5036236;28;20478;-73
2022/08/05 04:49:13;;;;;;;8.73;7.90;;;24.10;99.90;;;;;;5036030;28;20450;-75
2022/08/05 04:51:40;;;;;;;22.73;18.80;;;24.20;99.90;;;;;;5036190;28;20473;-74
2022/08/05 04:54:07;;;;;;;7.20;6.30;;;24.30;99.90;;;;;;5036387;28;20450;-74
2022/08/05 04:56:33;;;;;;;7.47;6.87;;;24.10;99.90;;;;;;5036247;28;20443;-75
2022/08/05 04:59:00;;;;;;;14.13;12.43;;;24.10;99.90;;;;;;5036447;28;20450;-75
2022/08/05 05:01:27;;;;;;;11.43;7.40;;;24.30;99.90;;;;;;5036200;28;20478;-74
2022/08/05 05:03:54;;;;;;;7.17;6.57;;;24.50;99.90;;;;;;5036118;28;20795;-74
2022/08/05 05:06:22;;;;;;;7.50;6.80;;;24.30;99.90;;;;;;5036135;28;20486;-74
2022/08/05 05:08:48;;;;;;;7.73;6.80;;;24.20;99.90;;;;;;5036222;28;20454;-74
2022/08/05 05:11:15;;;;;;;10.30;9.30;;;24.30;1.00;;;;;;5035855;28;20454;-75
2022/08/05 05:13:42;;;;;;;6.40;5.90;;;24.10;99.90;;;;;;5036209;28;20442;-75
2022/08/05 05:16:08;;;;;;;7.60;6.90;;;24.10;99.90;;;;;;5035996;28;20501;-74
2022/08/05 05:18:35;;;;;;;8.80;6.10;;;24.10;1.00;;;;;;5035480;28;21019;-74
2022/08/05 05:21:03;;;;;;;8.83;6.43;;;24.00;1.00;;;;;;5035810;28;20447;-74
2022/08/05 05:23:31;;;;;;;7.30;6.60;;;24.10;1.00;;;;;;5035564;28;20454;-74
2022/08/05 05:25:58;;;;;;;7.07;6.37;;;24.20;1.00;;;;;;5035444;28;20455;-74
2022/08/05 05:28:24;;;;;;;8.30;6.17;;;24.10;1.00;;;;;;5035813;28;20451;-74
2022/08/05 05:30:51;;;;;;;6.67;6.17;;;24.10;1.00;;;;;;5033740;28;20458;-74
2022/08/05 05:33:18;;;;;;;7.00;6.40;;;24.10;1.00;;;;;;5035103;28;20470;-74
2022/08/05 05:35:45;;;;;;;13.23;7.53;;;24.10;1.00;;;;;;5034869;28;20463;-74
2022/08/05 05:38:13;;;;;;;7.67;6.47;;;24.30;1.00;;;;;;5035180;28;20485;-74
2022/08/05 05:40:42;;;;;;;6.47;5.87;;;24.40;1.00;;;;;;5035291;28;20843;-75
2022/08/05 05:43:08;;;;;;;7.27;6.33;;;24.60;99.90;;;;;;5034981;28;21062;-75
2022/08/05 05:45:35;;;;;;;7.83;7.03;;;24.60;99.90;;;;;;5035203;28;20458;-75
2022/08/05 05:48:04;;;;;;;9.73;6.40;;;24.60;99.90;;;;;;5035182;28;20497;-75
2022/08/05 05:50:31;;;;;;;6.87;6.23;;;24.70;99.90;;;;;;5035063;28;20446;-74
2022/08/05 05:52:58;;;;;;;9.10;6.57;;;24.50;1.00;;;;;;5034658;28;20463;-74
2022/08/05 05:55:25;;;;;;;7.53;6.93;;;24.50;1.00;;;;;;5035031;28;20447;-74
2022/08/05 05:57:53;;;;;;;7.20;5.80;;;24.50;1.00;;;;;;5034955;28;20454;-75
2022/08/05 06:00:21;;;;;;;6.30;5.80;;;24.70;1.00;;;;;;5034498;28;21003;-74
2022/08/05 06:02:48;;;;;;;10.33;7.60;;;24.70;1.00;;;;;;5034673;28;20471;-74
2022/08/05 06:05:15;;;;;;;8.73;7.13;;;24.80;99.90;;;;;;5034785;28;20501;-74
2022/08/05 06:07:43;;;;;;;10.13;6.87;;;24.70;99.90;;;;;;5034844;28;20486;-75
2022/08/05 06:10:11;;;;;;;7.03;6.40;;;24.60;99.90;;;;;;5034663;28;20792;-74
2022/08/05 06:12:38;;;;;;;8.00;6.37;;;24.70;1.00;;;;;;5076112;22;20483;-74
2022/08/05 06:15:08;;;;;;;7.17;6.47;;;24.80;99.90;;;;;;5094771;28;20440;-74
2022/08/05 06:17:35;;;;;;;6.40;5.77;;;24.70;99.90;;;;;;5094820;28;20439;-75
2022/08/05 06:20:02;;;;;;;7.17;6.43;;;24.80;99.90;;;;;;5094509;28;20461;-74
2022/08/05 06:22:31;;;;;;;9.23;6.00;;;24.80;1.00;;;;;;5094513;28;20460;-75
2022/08/05 06:24:58;;;;;;;7.17;6.10;;;24.80;99.90;;;;;;5094477;28;20452;-74
2022/08/05 06:27:25;;;;;;;6.73;6.13;;;24.80;99.90;;;;;;5095100;28;20890;-74
2022/08/05 06:29:51;;;;;;;6.93;5.63;;;24.70;1.00;;;;;;5095259;28;20454;-74
2022/08/05 06:32:19;;;;;;;8.97;6.17;;;24.60;1.00;;;;;;5094256;28;20464;-74
2022/08/05 06:34:46;;;;;;;5.70;5.13;;;24.60;1.00;;;;;;5094355;28;20909;-73
2022/08/05 06:37:13;;;;;;;5.40;4.60;;;24.60;1.00;;;;;;5094584;28;20448;-73
2022/08/05 06:39:40;;;;;;;5.97;5.40;;;24.40;1.00;;;;;;5094262;28;20455;-73
2022/08/05 06:42:07;;;;;;;5.17;4.67;;;24.40;1.00;;;;;;5094173;28;20474;-73
2022/08/05 06:44:33;;;;;;;5.37;4.40;;;24.60;1.00;;;;;;5094092;28;20449;-73
2022/08/05 06:47:00;;;;;;;5.23;4.83;;;24.80;1.00;;;;;;5094141;28;20479;-74
2022/08/05 06:49:28;;;;;;;5.10;4.70;;;24.80;1.00;;;;;;5093994;28;20821;-74
2022/08/05 06:51:55;;;;;;;5.13;4.63;;;24.90;1.00;;;;;;5094048;28;20471;-75
2022/08/05 06:54:22;;;;;;;6.90;4.30;;;25.00;1.00;;;;;;5093815;28;20946;-75
2022/08/05 06:56:49;;;;;;;6.40;5.50;;;25.00;1.00;;;;;;5093782;28;20531;-73
2022/08/05 06:59:15;;;;;;;6.33;4.90;;;25.00;1.00;;;;;;5092702;28;20443;-72
2022/08/05 07:01:42;;;;;;;5.67;5.17;;;25.40;1.00;;;;;;5093820;28;20806;-74
2022/08/05 07:04:09;;;;;;;5.90;4.80;;;25.10;1.00;;;;;;5094051;28;20451;-74
2022/08/05 07:06:37;;;;;;;7.83;4.47;;;25.00;1.00;;;;;;5093461;28;20448;-75
2022/08/05 07:09:04;;;;;;;5.13;3.97;;;25.00;1.00;;;;;;5093886;28;20440;-73
2022/08/05 07:11:32;;;;;;;4.33;3.80;;;25.00;1.00;;;;;;5093683;28;20497;-74
2022/08/05 07:16:58;;;;;;;9.23;3.90;;;25.10;99.90;;;;;;5093577;28;20424;-75
2022/08/05 07:19:25;;;;;;;4.80;4.30;;;25.10;1.00;;;;;;5093673;28;20432;-75
2022/08/05 07:21:53;;;;;;;4.60;4.20;;;25.30;1.00;;;;;;5093463;28;20464;-74
2022/08/05 07:24:20;;;;;;;5.17;4.17;;;25.30;99.90;;;;;;5093280;28;20868;-74
2022/08/05 07:26:47;;;;;;;4.47;3.70;;;25.50;99.90;;;;;;5093252;28;20861;-75
2022/08/05 07:29:14;;;;;;;3.80;3.60;;;25.40;99.90;;;;;;5093013;28;20444;-73
2022/08/05 07:31:42;;;;;;;7.07;4.47;;;25.80;99.90;;;;;;5093443;28;20446;-73
2022/08/05 07:34:09;;;;;;;4.50;3.60;;;25.70;99.90;;;;;;5094193;28;20796;-75
2022/08/05 07:36:36;;;;;;;6.43;4.10;;;25.50;99.90;;;;;;5092928;28;20455;-75
2022/08/05 07:39:07;;;;;;;3.60;3.30;;;25.50;99.90;;;;;;5093816;28;20448;-74
2022/08/05 07:41:34;;;;;;;5.00;3.67;;;25.50;99.90;;;;;;5093180;28;20799;-74
2022/08/05 07:44:02;;;;;;;4.30;3.90;;;25.50;99.90;;;;;;5093637;28;20455;-75
2022/08/05 07:46:30;;;;;;;5.23;3.80;;;25.50;99.90;;;;;;5093259;28;20448;-74
2022/08/05 07:48:59;;;;;;;7.20;4.47;;;25.30;99.90;;;;;;5092855;28;20554;-75
2022/08/05 07:51:26;;;;;;;5.10;3.93;;;;;;;;;;5093264;28;20455;-75
2022/08/05 07:53:52;;;;;;;4.73;4.23;;;25.50;99.90;;;;;;5093175;28;20447;-76
2022/08/05 07:56:20;;;;;;;5.27;3.77;;;25.30;99.90;;;;;;5093003;28;20450;-75
2022/08/05 07:58:47;;;;;;;3.47;3.27;;;25.30;99.90;;;;;;5093633;28;20444;-76
2022/08/05 08:01:14;;;;;;;5.50;3.50;;;25.30;99.90;;;;;;5094284;28;20854;-76
2022/08/05 08:03:40;;;;;;;3.90;3.70;;;25.30;99.90;;;;;;5092981;28;20467;-74
2022/08/05 08:06:07;;;;;;;4.57;4.13;;;25.20;99.90;;;;;;5093111;28;20448;-74
2022/08/05 08:08:34;;;;;;;4.00;3.60;;;25.20;99.90;;;;;;5093094;28;20484;-75
2022/08/05 08:11:01;;;;;;;4.13;3.83;;;25.10;99.90;;;;;;5096319;28;20447;-74
2022/08/05 08:13:29;;;;;;;4.53;4.13;;;25.00;99.90;;;;;;5096554;28;20482;-75
2022/08/05 08:15:56;;;;;;;3.63;3.37;;;24.90;99.90;;;;;;5097011;28;20439;-74
2022/08/05 08:18:22;;;;;;;7.27;3.70;;;24.90;99.90;;;;;;5096652;28;20447;-74
2022/08/05 08:20:50;;;;;;;7.60;3.27;;;24.90;99.90;;;;;;5096819;28;20447;-74
2022/08/05 08:23:18;;;;;;;3.80;3.50;;;25.00;99.90;;;;;;5096799;28;20472;-75
2022/08/05 08:25:45;;;;;;;9.30;8.50;;;25.00;99.90;;;;;;5096687;28;20509;-75
2022/08/05 08:28:11;;;;;;;3.40;3.10;;;25.00;99.90;;;;;;5096687;28;20849;-75
2022/08/05 08:30:39;;;;;;;3.33;3.07;;;25.20;99.90;;;;;;5096721;28;20497;-75
2022/08/05 08:33:11;;;;;;;4.17;3.77;;;25.20;99.90;;;;;;5096718;28;20470;-75
2022/08/05 08:35:38;;;;;;;5.67;4.30;;;25.30;99.90;;;;;;5096634;28;20798;-75
2022/08/05 08:38:05;;;;;;;3.93;3.63;;;25.20;99.90;;;;;;5096595;28;20436;-74
2022/08/05 08:40:34;;;;;;;3.87;3.57;;;25.20;99.90;;;;;;5096542;28;20436;-74
2022/08/05 08:43:03;;;;;;;3.10;2.90;;;25.10;99.90;;;;;;5096127;28;20532;-74
2022/08/05 08:45:31;;;;;;;3.57;3.37;;;25.20;99.90;;;;;;5096545;28;20475;-75
2022/08/05 08:48:03;;;;;;;4.77;4.37;;;25.20;99.90;;;;;;5096161;28;20529;-75
2022/08/05 08:50:32;;;;;;;4.10;3.70;;;25.10;99.90;;;;;;5096812;28;20825;-74
2022/08/05 08:53:03;;;;;;;3.20;3.00;;;25.10;99.90;;;;;;5096492;28;20555;-74
2022/08/05 08:55:30;;;;;;;11.20;3.13;;;25.10;99.90;;;;;;5096510;28;20428;-74
2022/08/05 08:57:58;;;;;;;3.77;3.27;;;25.20;99.90;;;;;;5096062;28;20447;-75
2022/08/05 09:00:25;;;;;;;4.90;3.47;;;25.10;99.90;;;;;;5096067;28;20493;-75
2022/08/05 09:02:53;;;;;;;5.00;4.17;;;24.70;1.00;;;;;;5095809;28;20923;-74
2022/08/05 09:05:22;;;;;;;4.43;3.90;;;24.40;1.00;;;;;;5095784;28;20479;-74
2022/08/05 09:07:50;;;;;;;4.27;3.90;;;24.20;99.90;;;;;;5096123;28;20483;-74
2022/08/05 09:10:17;;;;;;;3.50;3.17;;;24.00;99.90;;;;;;5096058;28;20820;-74
2022/08/05 09:12:44;;;;;;;6.57;4.00;;;24.00;1.00;;;;;;5095674;28;20489;-75
2022/08/05 09:15:11;;;;;;;6.03;4.33;;;24.10;99.90;;;;;;5096215;28;20452;-74
2022/08/05 09:17:39;;;;;;;3.43;3.10;;;24.30;99.90;;;;;;5096372;28;20440;-74
2022/08/05 09:20:07;;;;;;;7.03;3.30;;;24.40;1.00;;;;;;5095903;28;20810;-74
2022/08/05 09:23:04;;;;;;;6.40;3.30;;;24.50;1.00;;;;;;5094835;28;20837;-74
2022/08/05 09:25:31;;;;;;;4.17;2.77;;;24.50;1.00;;;;;;5095584;28;20447;-74
2022/08/05 09:28:09;;;;;;;6.83;4.13;;;24.50;1.00;;;;;;5096533;28;20486;-74
2022/08/05 09:30:36;;;;;;;3.70;3.10;;;24.50;1.00;;;;;;5095816;28;20419;-74
2022/08/05 09:33:03;;;;;;;2.93;2.73;;;24.60;1.00;;;;;;5095527;28;20472;-74
2022/08/05 09:35:30;;;;;;;4.63;3.70;;;24.60;1.00;;;;;;5095587;28;20810;-74
2022/08/05 09:37:57;;;;;;;3.33;3.07;;;24.70;1.00;;;;;;5095950;28;20547;-74
2022/08/05 09:40:35;;;;;;;3.93;3.50;;;24.70;1.00;;;;;;5095415;28;20525;-74
2022/08/05 09:43:05;;;;;;;4.20;2.90;;;24.80;99.90;;;;;;5095257;28;20467;-74
2022/08/05 09:45:38;;;;;;;4.17;3.40;;;24.80;1.00;;;;;;5095371;28;20450;-74
2022/08/05 09:48:24;;;;;;;3.87;3.57;;;24.70;1.00;;;;;;5094827;28;20480;-74
2022/08/05 09:50:51;;;;;;;3.60;3.30;;;24.80;99.90;;;;;;5095266;28;20429;-74
2022/08/05 09:53:18;;;;;;;3.20;2.90;;;24.80;99.90;;;;;;5094750;28;20974;-74
2022/08/05 09:55:50;;;;;;;3.90;3.57;;;24.70;1.00;;;;;;5095091;28;20444;-74
2022/08/05 09:58:17;;;;;;;3.53;3.23;;;24.50;99.90;;;;;;5095258;28;20552;-75
2022/08/05 10:01:02;;;;;;;3.63;3.20;;;24.40;1.00;;;;;;5095085;28;20787;-75
2022/08/05 10:03:29;;;;;;;4.60;3.50;;;24.30;1.00;;;;;;5094898;28;20495;-74
2022/08/05 10:06:05;;;;;;;3.70;3.50;;;24.10;21.70;;;;;;5094670;28;20505;-75
2022/08/05 10:08:32;;;;;;;6.20;3.70;;;24.10;99.90;;;;;;5095003;28;20471;-74
2022/08/05 10:11:04;;;;;;;10.67;4.07;;;24.10;99.90;;;;;;5094745;28;20748;-73
2022/08/05 10:13:34;;;;;;;5.07;3.50;;;23.80;99.90;;;;;;5094691;28;20882;-73
2022/08/05 10:16:01;;;;;;;3.83;3.43;;;23.50;99.90;;;;;;5094550;28;20798;-73
2022/08/05 10:18:30;;;;;;;4.20;3.80;;;23.30;1.00;;;;;;5094469;28;20469;-73
2022/08/05 10:21:01;;;;;;;5.10;3.80;;;23.20;99.90;;;;;;5094216;28;20984;-73
2022/08/05 10:23:29;;;;;;;6.53;4.30;;;23.10;99.90;;;;;;5094609;28;20467;-74
2022/08/05 10:25:57;;;;;;;4.90;4.20;;;23.10;1.00;;;;;;5094346;28;20454;-74
2022/08/05 10:28:26;;;;;;;6.90;4.07;;;23.20;99.90;;;;;;5094307;28;20880;-73
2022/08/05 10:30:53;;;;;;;4.30;3.90;;;23.40;1.00;;;;;;5094517;28;20476;-75
2022/08/05 10:33:22;;;;;;;6.97;4.13;;;23.50;99.90;;;;;;5094749;28;20826;-74
2022/08/05 10:35:49;;;;;;;6.93;3.80;;;23.70;99.90;;;;;;5094485;28;20459;-75
2022/08/05 10:38:18;;;;;;;4.77;3.90;;;23.90;99.90;;;;;;5094331;28;20448;-75
2022/08/05 10:40:54;;;;;;;4.43;3.87;;;23.90;1.00;;;;;;5094750;28;20455;-75
2022/08/05 10:43:36;;;;;;;10.40;4.67;;;23.90;70.00;;;;;;5094193;28;20471;-75
2022/08/05 10:46:05;;;;;;;7.50;4.80;;;23.70;1.00;;;;;;5094134;28;20420;-74
2022/08/05 10:48:34;;;;;;;6.63;5.40;;;23.50;1.00;;;;;;5093937;28;20482;-74
2022/08/05 10:51:03;;;;;;;9.60;5.80;;;22.90;99.90;;;;;;5093862;28;20448;-74
2022/08/05 10:53:38;;;;;;;6.87;6.10;;;22.30;99.90;;;;;;5093568;28;20472;-74
2022/08/05 10:56:07;;;;;;;7.67;6.60;;;22.20;99.90;;;;;;5094465;28;20452;-74
2022/08/05 10:58:36;;;;;;;7.10;6.40;;;22.20;99.90;;;;;;5093092;28;20444;-75
2022/08/05 11:01:07;;;;;;;7.00;5.00;;;22.10;99.90;;;;;;5093750;28;20450;-74
2022/08/05 11:03:34;;;;;;;6.60;4.93;;;22.10;99.90;;;;;;5093534;28;20489;-74
2022/08/05 11:06:10;;;;;;;8.00;7.20;;;22.10;99.90;;;;;;5093512;28;20955;-74
2022/08/05 11:08:37;;;;;;;7.17;6.10;;;22.10;99.90;;;;;;5093857;28;20475;-75
2022/08/05 11:11:34;;;;;;;7.07;6.47;;;22.10;99.90;;;;;;5093880;28;20517;-75
2022/08/05 11:14:06;;;;;;;7.63;6.90;;;22.10;99.90;;;;;;5093999;28;20436;-75
2022/08/05 11:16:33;;;;;;;9.50;8.10;;;22.20;99.90;;;;;;5093629;28;20919;-75
2022/08/05 11:19:25;;;;;;;9.80;7.20;;;22.30;99.90;;;;;;5094058;28;20447;-74
2022/08/05 11:21:52;;;;;;;5.07;4.40;;;22.70;99.90;;;;;;5094533;28;20464;-74
2022/08/05 11:24:20;;;;;;;4.80;4.00;;;22.80;99.90;;;;;;5094109;28;20865;-74
2022/08/05 11:26:47;;;;;;;4.60;4.20;;;23.30;99.90;;;;;;5093668;28;20451;-75
2022/08/05 11:29:40;;;;;;;4.07;3.50;;;23.60;1.00;;;;;;5093622;28;20533;-75
2022/08/05 11:32:27;;;;;;;4.43;3.20;;;23.90;30.20;;;;;;5093430;28;20464;-74
2022/08/05 11:34:54;;;;;;;4.20;3.60;;;24.10;1.00;;;;;;5093638;28;20473;-75
2022/08/05 11:38:05;;;;;;;4.17;3.77;;;24.30;99.90;;;;;;5093331;28;20455;-74
2022/08/05 11:41:00;;;;;;;4.67;3.37;;;24.40;99.90;;;;;;5093360;28;20454;-75
2022/08/05 11:43:27;;;;;;;3.40;2.87;;;24.30;1.00;;;;;;5046216;28;20658;-75
2022/08/05 11:45:55;;;;;;;3.60;3.30;;;24.30;1.00;;;;;;5092511;28;20448;-75
2022/08/05 11:48:22;;;;;;;3.40;3.10;;;24.30;1.00;;;;;;5093285;28;20479;-75
2022/08/05 11:50:50;;;;;;;4.07;3.77;;;24.30;15.20;;;;;;5094114;28;20854;-75
2022/08/05 11:53:17;;;;;;;4.63;3.80;;;24.50;1.00;;;;;;5093062;28;20472;-74
2022/08/05 11:55:56;;;;;;;8.50;7.80;;;24.80;99.90;;;;;;5093271;28;20443;-74
2022/08/05 11:58:30;;;;;;;3.50;3.30;;;25.00;1.00;;;;;;5093310;28;20424;-74
2022/08/05 12:01:04;;;;;;;4.57;4.17;;;25.20;1.00;;;;;;5093208;28;20523;-74
2022/08/05 12:03:41;;;;;;;3.87;3.60;;;25.30;1.00;;;;;;5093466;28;20534;-74
2022/08/05 12:06:08;;;;;;;3.70;3.40;;;25.50;1.00;;;;;;5093469;28;20429;-74
2022/08/05 12:08:43;;;;;;;4.73;4.33;;;25.40;1.00;;;;;;5093008;28;20484;-74
2022/08/05 12:11:11;;;;;;;4.87;3.90;;;25.60;1.00;;;;;;5093026;28;20432;-74
2022/08/05 12:13:38;;;;;;;4.37;3.97;;;25.80;1.00;;;;;;5092819;28;20475;-74
2022/08/05 12:16:08;;;;;;;4.60;4.27;;;25.90;1.00;;;;;;5092876;28;20444;-75
2022/08/05 12:18:36;;;;;;;4.47;4.00;;;25.90;99.90;;;;;;5092978;28;20436;-74
2022/08/05 12:21:10;;;;;;;4.93;4.53;;;26.00;1.00;;;;;;5092970;28;20450;-74
2022/08/05 12:23:37;;;;;;;3.93;3.70;;;26.20;1.00;;;;;;5092617;28;20467;-75
2022/08/05 12:26:04;;;;;;;4.43;4.03;;;26.40;99.90;;;;;;5092918;28;20450;-74
2022/08/05 12:28:32;;;;;;;4.37;3.97;;;26.50;99.90;;;;;;5092236;28;20475;-74
2022/08/05 12:30:59;;;;;;;5.20;4.10;;;26.60;99.90;;;;;;5092728;28;20448;-75
2022/08/05 12:33:27;;;;;;;5.30;4.80;;;26.50;99.90;;;;;;5092876;28;20475;-75
2022/08/05 12:35:55;;;;;;;6.93;5.93;;;26.70;99.90;;;;;;5092572;28;20440;-74
2022/08/05 12:38:22;;;;;;;9.70;5.80;;;26.70;99.90;;;;;;5092499;28;20454;-75
2022/08/05 12:40:49;;;;;;;4.60;4.20;;;26.80;99.90;;;;;;5092060;28;20451;-75
2022/08/05 12:43:16;;;;;;;6.63;5.20;;;26.90;99.90;;;;;;5092498;28;20464;-74
2022/08/05 12:45:53;;;;;;;5.80;4.30;;;27.10;99.90;;;;;;5092638;28;20853;-74
2022/08/05 12:48:20;;;;;;;5.70;5.00;;;27.20;99.90;;;;;;5092638;28;20424;-74
2022/08/05 12:51:13;;;;;;;5.17;4.67;;;27.30;99.90;;;;;;5092684;28;20448;-74
2022/08/05 12:53:43;;;;;;;9.40;8.27;;;27.40;1.00;;;;;;5092612;28;20464;-74
2022/08/05 12:56:18;;;;;;;5.53;4.57;;;27.30;7.70;;;;;;5094172;28;20462;-74
2022/08/05 12:58:44;;;;;;;7.30;4.97;;;27.20;1.00;;;;;;5096390;28;20430;-74
2022/08/05 13:01:14;;;;;;;5.10;4.70;;;27.20;1.00;;;;;;5096741;28;20439;-75
2022/08/05 13:03:41;;;;;;;5.97;4.90;;;27.30;1.00;;;;;;5096257;28;20498;-74
2022/08/05 13:06:09;;;;;;;5.70;5.30;;;27.30;1.00;;;;;;5095957;28;20440;-75